sensor_id;sensor_type;location;lat;lon;timestamp;pressure;altitude;pressure_sealevel;temperature;humidity
70982;BME280;58640;51.320;9.456;2023-05-07T00:00:43;99476.31;;;13.93;90.39
70982;BME280;58640;51.320;9.456;2023-05-07T00:03:08;99472.06;;;13.84;90.94
70982;BME280;58640;51.320;9.456;2023-05-07T00:05:34;99473.56;;;13.86;90.45
70982;BME280;58640;51.320;9.456;2023-05-07T00:07:59;99477.94;;;13.87;91.01
70982;BME280;58640;51.320;9.456;2023-05-07T00:10:25;99472.66;;;13.79;91.28
70982;BME280;58640;51.320;9.456;2023-05-07T00:12:50;99471.41;;;13.75;91.75
70982;BME280;58640;51.320;9.456;2023-05-07T00:15:16;99475.97;;;13.75;92.14
70982;BME280;58640;51.320;9.456;2023-05-07T00:17:41;99463.97;;;13.84;91.37
70982;BME280;58640;51.320;9.456;2023-05-07T00:20:07;99469.91;;;13.73;93.85
70982;BME280;58640;51.320;9.456;2023-05-07T00:22:32;99463.63;;;13.66;94.68
70982;BME280;58640;51.320;9.456;2023-05-07T00:24:58;99465.94;;;13.69;94.59
70982;BME280;58640;51.320;9.456;2023-05-07T00:27:24;99465.09;;;13.68;95.96
70982;BME280;58640;51.320;9.456;2023-05-07T00:29:50;99468.25;;;13.72;95.28
70982;BME280;58640;51.320;9.456;2023-05-07T00:32:15;99474.84;;;13.69;93.41
70982;BME280;58640;51.320;9.456;2023-05-07T00:34:41;99469.91;;;13.73;92.89
70982;BME280;58640;51.320;9.456;2023-05-07T00:37:06;99467.84;;;13.75;92.98
70982;BME280;58640;51.320;9.456;2023-05-07T00:39:34;99475.75;;;13.76;92.70
70982;BME280;58640;51.320;9.456;2023-05-07T00:42:00;99477.34;;;13.71;91.68
70982;BME280;58640;51.320;9.456;2023-05-07T00:44:26;99478.16;;;13.65;91.86
70982;BME280;58640;51.320;9.456;2023-05-07T00:46:53;99467.28;;;13.58;92.67
70982;BME280;58640;51.320;9.456;2023-05-07T00:49:19;99472.22;;;13.55;93.19
70982;BME280;58640;51.320;9.456;2023-05-07T00:51:45;99458.41;;;13.64;92.08
70982;BME280;58640;51.320;9.456;2023-05-07T00:54:10;99464.88;;;13.70;91.39
70982;BME280;58640;51.320;9.456;2023-05-07T00:56:36;99455.88;;;13.63;91.45
70982;BME280;58640;51.320;9.456;2023-05-07T00:59:03;99467.34;;;13.65;90.93
70982;BME280;58640;51.320;9.456;2023-05-07T01:01:28;99460.28;;;13.43;91.87
70982;BME280;58640;51.320;9.456;2023-05-07T01:03:54;99447.41;;;13.45;91.53
70982;BME280;58640;51.320;9.456;2023-05-07T01:06:20;99452.63;;;13.46;90.32
70982;BME280;58640;51.320;9.456;2023-05-07T01:08:47;99459.56;;;13.34;90.63
70982;BME280;58640;51.320;9.456;2023-05-07T01:11:13;99461.63;;;13.32;90.61
70982;BME280;58640;51.320;9.456;2023-05-07T01:13:39;99464.88;;;13.27;90.91
70982;BME280;58640;51.320;9.456;2023-05-07T01:16:05;99461.75;;;13.24;91.50
70982;BME280;58640;51.320;9.456;2023-05-07T01:18:31;99461.94;;;13.23;91.35
70982;BME280;58640;51.320;9.456;2023-05-07T01:20:58;99465.41;;;13.16;92.41
70982;BME280;58640;51.320;9.456;2023-05-07T01:23:25;99461.03;;;13.15;92.28
70982;BME280;58640;51.320;9.456;2023-05-07T01:25:52;99462.47;;;13.11;92.47
70982;BME280;58640;51.320;9.456;2023-05-07T01:28:17;99458.06;;;13.10;92.45
70982;BME280;58640;51.320;9.456;2023-05-07T01:30:51;99464.78;;;13.14;92.15
70982;BME280;58640;51.320;9.456;2023-05-07T01:33:20;99461.94;;;13.23;90.93
70982;BME280;58640;51.320;9.456;2023-05-07T01:35:49;99469.59;;;13.19;90.40
70982;BME280;58640;51.320;9.456;2023-05-07T01:38:16;99473.09;;;13.19;91.04
70982;BME280;58640;51.320;9.456;2023-05-07T01:40:41;99465.78;;;13.13;91.32
70982;BME280;58640;51.320;9.456;2023-05-07T01:43:07;99457.94;;;13.18;90.31
70982;BME280;58640;51.320;9.456;2023-05-07T01:45:34;99465.97;;;13.12;90.85
70982;BME280;58640;51.320;9.456;2023-05-07T01:48:00;99470.72;;;13.10;90.74
70982;BME280;58640;51.320;9.456;2023-05-07T01:50:27;99462.47;;;13.11;89.60
70982;BME280;58640;51.320;9.456;2023-05-07T01:52:52;99464.63;;;13.01;90.40
70982;BME280;58640;51.320;9.456;2023-05-07T01:55:18;99458.84;;;13.04;90.21
70982;BME280;58640;51.320;9.456;2023-05-07T01:57:43;99464.97;;;12.98;90.99
70982;BME280;58640;51.320;9.456;2023-05-07T02:00:09;99469.06;;;13.09;90.20
70982;BME280;58640;51.320;9.456;2023-05-07T02:02:35;99469.06;;;12.94;91.15
70982;BME280;58640;51.320;9.456;2023-05-07T02:05:00;99467.78;;;12.90;91.42
70982;BME280;58640;51.320;9.456;2023-05-07T02:07:27;99469.81;;;12.88;91.65
70982;BME280;58640;51.320;9.456;2023-05-07T02:09:52;99473.69;;;12.79;92.62
70982;BME280;58640;51.320;9.456;2023-05-07T02:12:18;99475.97;;;12.97;90.43
70982;BME280;58640;51.320;9.456;2023-05-07T02:14:43;99467.03;;;12.82;92.27
70982;BME280;58640;51.320;9.456;2023-05-07T02:17:08;99471.78;;;12.80;91.90
70982;BME280;58640;51.320;9.456;2023-05-07T02:19:34;99478.31;;;12.85;91.47
70982;BME280;58640;51.320;9.456;2023-05-07T02:21:59;99490.97;;;12.85;91.57
70982;BME280;58640;51.320;9.456;2023-05-07T02:24:24;99483.81;;;12.77;92.20
70982;BME280;58640;51.320;9.456;2023-05-07T02:26:50;99481.97;;;12.78;92.27
70982;BME280;58640;51.320;9.456;2023-05-07T02:29:15;99480.47;;;12.75;92.69
70982;BME280;58640;51.320;9.456;2023-05-07T02:31:41;99482.97;;;12.77;93.05
70982;BME280;58640;51.320;9.456;2023-05-07T02:34:06;99492.94;;;12.76;92.42
70982;BME280;58640;51.320;9.456;2023-05-07T02:36:31;99495.38;;;12.71;92.65
70982;BME280;58640;51.320;9.456;2023-05-07T02:38:57;99488.47;;;12.69;93.86
70982;BME280;58640;51.320;9.456;2023-05-07T02:41:22;99485.59;;;12.56;93.83
70982;BME280;58640;51.320;9.456;2023-05-07T02:43:47;99489.78;;;12.58;93.76
70982;BME280;58640;51.320;9.456;2023-05-07T02:46:13;99488.84;;;12.51;94.25
70982;BME280;58640;51.320;9.456;2023-05-07T02:48:38;99489.03;;;12.64;93.14
70982;BME280;58640;51.320;9.456;2023-05-07T02:51:04;99492.50;;;12.58;93.41
70982;BME280;58640;51.320;9.456;2023-05-07T02:53:30;99489.13;;;12.56;93.99
70982;BME280;58640;51.320;9.456;2023-05-07T02:55:57;99506.06;;;12.50;93.23
70982;BME280;58640;51.320;9.456;2023-05-07T02:58:22;99498.69;;;12.73;91.03
70982;BME280;58640;51.320;9.456;2023-05-07T03:00:48;99503.00;;;12.68;90.83
70982;BME280;58640;51.320;9.456;2023-05-07T03:03:14;99504.56;;;12.62;91.35
70982;BME280;58640;51.320;9.456;2023-05-07T03:05:40;99501.34;;;12.67;91.53
70982;BME280;58640;51.320;9.456;2023-05-07T03:08:05;99504.13;;;12.59;92.02
70982;BME280;58640;51.320;9.456;2023-05-07T03:10:30;99498.25;;;12.41;92.92
70982;BME280;58640;51.320;9.456;2023-05-07T03:12:56;99503.56;;;12.49;92.32
70982;BME280;58640;51.320;9.456;2023-05-07T03:15:21;99498.44;;;12.39;92.70
70982;BME280;58640;51.320;9.456;2023-05-07T03:17:47;99499.75;;;12.43;92.94
70982;BME280;58640;51.320;9.456;2023-05-07T03:20:13;99503.66;;;12.41;92.48
70982;BME280;58640;51.320;9.456;2023-05-07T03:22:38;99509.44;;;12.38;93.07
70982;BME280;58640;51.320;9.456;2023-05-07T03:25:04;99509.13;;;12.33;93.67
70982;BME280;58640;51.320;9.456;2023-05-07T03:27:30;99501.44;;;12.44;92.37
70982;BME280;58640;51.320;9.456;2023-05-07T03:29:55;99499.63;;;12.37;92.90
70982;BME280;58640;51.320;9.456;2023-05-07T03:32:21;99504.69;;;12.25;92.46
70982;BME280;58640;51.320;9.456;2023-05-07T03:34:46;99505.97;;;12.44;91.83
70982;BME280;58640;51.320;9.456;2023-05-07T03:37:11;99499.38;;;12.32;92.46
70982;BME280;58640;51.320;9.456;2023-05-07T03:39:37;99495.81;;;12.17;94.25
70982;BME280;58640;51.320;9.456;2023-05-07T03:42:02;99502.78;;;12.11;95.04
70982;BME280;58640;51.320;9.456;2023-05-07T03:44:28;99502.53;;;12.06;95.14
70982;BME280;58640;51.320;9.456;2023-05-07T03:46:53;99506.50;;;12.10;94.65
70982;BME280;58640;51.320;9.456;2023-05-07T03:49:18;99512.94;;;12.09;94.90
70982;BME280;58640;51.320;9.456;2023-05-07T03:51:44;99506.97;;;11.99;96.35
70982;BME280;58640;51.320;9.456;2023-05-07T03:54:09;99508.16;;;11.97;95.61
70982;BME280;58640;51.320;9.456;2023-05-07T03:56:35;99510.06;;;12.11;94.38
70982;BME280;58640;51.320;9.456;2023-05-07T03:59:00;99519.81;;;12.12;94.60
70982;BME280;58640;51.320;9.456;2023-05-07T04:01:26;99516.16;;;12.05;95.69
70982;BME280;58640;51.320;9.456;2023-05-07T04:03:52;99524.09;;;12.06;95.09
70982;BME280;58640;51.320;9.456;2023-05-07T04:06:17;99525.38;;;12.10;94.86
70982;BME280;58640;51.320;9.456;2023-05-07T04:08:43;99532.94;;;11.92;96.30
70982;BME280;58640;51.320;9.456;2023-05-07T04:11:08;99533.88;;;11.85;96.71
70982;BME280;58640;51.320;9.456;2023-05-07T04:13:33;99531.13;;;11.70;96.85
70982;BME280;58640;51.320;9.456;2023-05-07T04:16:01;99537.72;;;11.67;97.12
70982;BME280;58640;51.320;9.456;2023-05-07T04:18:26;99539.50;;;11.75;96.93
70982;BME280;58640;51.320;9.456;2023-05-07T04:20:52;99543.78;;;11.69;97.64
70982;BME280;58640;51.320;9.456;2023-05-07T04:23:17;99535.41;;;11.64;98.19
70982;BME280;58640;51.320;9.456;2023-05-07T04:25:42;99541.97;;;11.54;99.13
70982;BME280;58640;51.320;9.456;2023-05-07T04:28:08;99538.09;;;11.64;98.28
70982;BME280;58640;51.320;9.456;2023-05-07T04:30:33;99537.91;;;11.66;97.63
70982;BME280;58640;51.320;9.456;2023-05-07T04:32:58;99536.72;;;11.60;98.23
70982;BME280;58640;51.320;9.456;2023-05-07T04:35:24;99539.47;;;11.52;99.46
70982;BME280;58640;51.320;9.456;2023-05-07T04:37:49;99541.81;;;11.55;99.55
70982;BME280;58640;51.320;9.456;2023-05-07T04:40:14;99545.84;;;11.59;100.00
70982;BME280;58640;51.320;9.456;2023-05-07T04:42:41;99543.47;;;11.64;99.62
70982;BME280;58640;51.320;9.456;2023-05-07T04:45:06;99544.63;;;11.62;100.00
70982;BME280;58640;51.320;9.456;2023-05-07T04:47:33;99556.78;;;11.58;98.93
70982;BME280;58640;51.320;9.456;2023-05-07T04:49:59;99548.00;;;11.64;98.56
70982;BME280;58640;51.320;9.456;2023-05-07T04:52:24;99549.69;;;11.65;98.54
70982;BME280;58640;51.320;9.456;2023-05-07T04:54:49;99552.50;;;11.71;98.78
70982;BME280;58640;51.320;9.456;2023-05-07T04:57:15;99549.63;;;11.73;98.49
70982;BME280;58640;51.320;9.456;2023-05-07T04:59:42;99545.19;;;11.80;97.97
70982;BME280;58640;51.320;9.456;2023-05-07T05:02:07;99555.69;;;11.75;97.68
70982;BME280;58640;51.320;9.456;2023-05-07T05:04:32;99552.06;;;11.82;97.29
70982;BME280;58640;51.320;9.456;2023-05-07T05:06:58;99558.66;;;11.80;97.16
70982;BME280;58640;51.320;9.456;2023-05-07T05:09:23;99559.63;;;11.87;96.59
70982;BME280;58640;51.320;9.456;2023-05-07T05:11:48;99559.59;;;11.72;96.98
70982;BME280;58640;51.320;9.456;2023-05-07T05:14:14;99566.88;;;11.64;98.38
70982;BME280;58640;51.320;9.456;2023-05-07T05:16:39;99567.22;;;11.61;98.35
70982;BME280;58640;51.320;9.456;2023-05-07T05:19:05;99566.50;;;11.67;97.75
70982;BME280;58640;51.320;9.456;2023-05-07T05:21:31;99565.09;;;11.79;96.53
70982;BME280;58640;51.320;9.456;2023-05-07T05:23:56;99566.75;;;11.80;95.58
70982;BME280;58640;51.320;9.456;2023-05-07T05:26:22;99571.47;;;12.01;95.00
70982;BME280;58640;51.320;9.456;2023-05-07T05:28:47;99574.78;;;11.88;95.34
70982;BME280;58640;51.320;9.456;2023-05-07T05:31:13;99572.81;;;11.82;96.72
70982;BME280;58640;51.320;9.456;2023-05-07T05:33:39;99572.56;;;11.92;96.59
70982;BME280;58640;51.320;9.456;2023-05-07T05:36:05;99562.59;;;11.92;96.75
70982;BME280;58640;51.320;9.456;2023-05-07T05:38:31;99566.56;;;12.04;94.41
70982;BME280;58640;51.320;9.456;2023-05-07T05:40:56;99561.16;;;12.04;93.80
70982;BME280;58640;51.320;9.456;2023-05-07T05:43:21;99565.16;;;12.08;93.32
70982;BME280;58640;51.320;9.456;2023-05-07T05:45:47;99570.56;;;11.86;93.89
70982;BME280;58640;51.320;9.456;2023-05-07T05:48:12;99571.34;;;11.94;94.58
70982;BME280;58640;51.320;9.456;2023-05-07T05:50:37;99573.13;;;12.02;93.96
70982;BME280;58640;51.320;9.456;2023-05-07T05:53:03;99563.00;;;12.04;93.77
70982;BME280;58640;51.320;9.456;2023-05-07T05:55:28;99571.94;;;12.04;93.75
70982;BME280;58640;51.320;9.456;2023-05-07T05:57:54;99571.81;;;12.20;93.70
70982;BME280;58640;51.320;9.456;2023-05-07T06:00:19;99565.38;;;12.21;92.96
70982;BME280;58640;51.320;9.456;2023-05-07T06:02:47;99570.59;;;12.23;92.46
70982;BME280;58640;51.320;9.456;2023-05-07T06:05:13;99577.97;;;12.43;91.97
70982;BME280;58640;51.320;9.456;2023-05-07T06:07:38;99578.72;;;12.37;91.68
70982;BME280;58640;51.320;9.456;2023-05-07T06:10:04;99576.38;;;12.34;92.44
70982;BME280;58640;51.320;9.456;2023-05-07T06:12:29;99574.25;;;12.30;91.94
70982;BME280;58640;51.320;9.456;2023-05-07T06:14:54;99577.94;;;12.29;92.74
70982;BME280;58640;51.320;9.456;2023-05-07T06:17:20;99581.00;;;12.26;93.05
70982;BME280;58640;51.320;9.456;2023-05-07T06:19:45;99578.72;;;12.37;93.15
70982;BME280;58640;51.320;9.456;2023-05-07T06:22:11;99592.97;;;12.46;92.18
70982;BME280;58640;51.320;9.456;2023-05-07T06:24:36;99590.34;;;12.38;93.40
70982;BME280;58640;51.320;9.456;2023-05-07T06:27:01;99588.50;;;12.53;91.38
70982;BME280;58640;51.320;9.456;2023-05-07T06:29:27;99594.38;;;12.71;90.34
70982;BME280;58640;51.320;9.456;2023-05-07T06:31:53;99601.91;;;12.90;90.18
70982;BME280;58640;51.320;9.456;2023-05-07T06:34:18;99598.13;;;13.13;88.62
70982;BME280;58640;51.320;9.456;2023-05-07T06:36:43;99601.00;;;13.12;88.78
70982;BME280;58640;51.320;9.456;2023-05-07T06:39:09;99603.13;;;13.16;88.56
70982;BME280;58640;51.320;9.456;2023-05-07T06:41:34;99603.34;;;13.00;88.30
70982;BME280;58640;51.320;9.456;2023-05-07T06:44:03;99608.53;;;12.87;91.69
70982;BME280;58640;51.320;9.456;2023-05-07T06:46:29;99620.72;;;12.69;91.00
70982;BME280;58640;51.320;9.456;2023-05-07T06:48:54;99619.72;;;12.70;90.18
70982;BME280;58640;51.320;9.456;2023-05-07T06:51:20;99614.56;;;12.60;90.91
70982;BME280;58640;51.320;9.456;2023-05-07T06:53:45;99611.03;;;12.60;91.39
70982;BME280;58640;51.320;9.456;2023-05-07T06:56:10;99621.25;;;12.64;88.96
70982;BME280;58640;51.320;9.456;2023-05-07T06:58:37;99629.06;;;12.59;90.62
70982;BME280;58640;51.320;9.456;2023-05-07T07:01:02;99616.25;;;12.76;89.03
70982;BME280;58640;51.320;9.456;2023-05-07T07:03:27;99620.63;;;12.77;89.20
70982;BME280;58640;51.320;9.456;2023-05-07T07:05:54;99610.88;;;12.90;88.90
70982;BME280;58640;51.320;9.456;2023-05-07T07:08:19;99620.56;;;13.14;87.53
70982;BME280;58640;51.320;9.456;2023-05-07T07:10:46;99623.63;;;13.26;87.53
70982;BME280;58640;51.320;9.456;2023-05-07T07:13:12;99626.91;;;13.21;87.59
70982;BME280;58640;51.320;9.456;2023-05-07T07:15:37;99616.53;;;13.24;87.84
70982;BME280;58640;51.320;9.456;2023-05-07T07:18:03;99624.91;;;13.44;87.01
70982;BME280;58640;51.320;9.456;2023-05-07T07:20:28;99619.38;;;13.52;84.92
70982;BME280;58640;51.320;9.456;2023-05-07T07:22:53;99627.69;;;13.51;84.18
70982;BME280;58640;51.320;9.456;2023-05-07T07:25:19;99623.31;;;13.50;85.00
70982;BME280;58640;51.320;9.456;2023-05-07T07:27:44;99632.34;;;13.42;86.57
70982;BME280;58640;51.320;9.456;2023-05-07T07:30:10;99623.13;;;13.51;83.64
70982;BME280;58640;51.320;9.456;2023-05-07T07:32:35;99625.06;;;13.93;81.38
70982;BME280;58640;51.320;9.456;2023-05-07T07:35:01;99629.75;;;14.05;81.44
70982;BME280;58640;51.320;9.456;2023-05-07T07:37:26;99623.44;;;14.40;81.29
70982;BME280;58640;51.320;9.456;2023-05-07T07:39:52;99633.97;;;14.84;77.48
70982;BME280;58640;51.320;9.456;2023-05-07T07:42:17;99626.22;;;15.09;76.01
70982;BME280;58640;51.320;9.456;2023-05-07T07:44:43;99628.72;;;15.10;76.20
70982;BME280;58640;51.320;9.456;2023-05-07T07:47:10;99622.38;;;15.31;75.35
70982;BME280;58640;51.320;9.456;2023-05-07T07:49:35;99620.91;;;15.75;71.60
70982;BME280;58640;51.320;9.456;2023-05-07T07:52:01;99621.09;;;15.67;72.55
70982;BME280;58640;51.320;9.456;2023-05-07T07:54:26;99617.59;;;15.86;71.42
70982;BME280;58640;51.320;9.456;2023-05-07T07:56:52;99631.28;;;15.65;72.06
70982;BME280;58640;51.320;9.456;2023-05-07T07:59:17;99630.50;;;15.71;71.98
70982;BME280;58640;51.320;9.456;2023-05-07T08:01:44;99622.38;;;15.71;72.93
70982;BME280;58640;51.320;9.456;2023-05-07T08:04:10;99624.03;;;15.72;72.73
70982;BME280;58640;51.320;9.456;2023-05-07T08:06:35;99628.44;;;15.86;70.56
70982;BME280;58640;51.320;9.456;2023-05-07T08:09:00;99629.13;;;16.34;68.79
70982;BME280;58640;51.320;9.456;2023-05-07T08:11:26;99635.63;;;16.40;67.37
70982;BME280;58640;51.320;9.456;2023-05-07T08:13:52;99624.59;;;16.48;67.68
70982;BME280;58640;51.320;9.456;2023-05-07T08:16:17;99639.59;;;16.31;69.17
70982;BME280;58640;51.320;9.456;2023-05-07T08:18:42;99633.13;;;16.38;68.86
70982;BME280;58640;51.320;9.456;2023-05-07T08:21:08;99632.50;;;16.36;68.11
70982;BME280;58640;51.320;9.456;2023-05-07T08:23:33;99631.03;;;16.27;68.60
70982;BME280;58640;51.320;9.456;2023-05-07T08:25:59;99633.13;;;16.32;68.07
70982;BME280;58640;51.320;9.456;2023-05-07T08:28:25;99635.84;;;16.38;66.72
70982;BME280;58640;51.320;9.456;2023-05-07T08:30:50;99626.69;;;16.65;64.79
70982;BME280;58640;51.320;9.456;2023-05-07T08:33:16;99629.41;;;16.59;66.50
70982;BME280;58640;51.320;9.456;2023-05-07T08:35:41;99625.34;;;17.20;65.14
70982;BME280;58640;51.320;9.456;2023-05-07T08:38:06;99624.28;;;17.78;62.63
70982;BME280;58640;51.320;9.456;2023-05-07T08:40:36;99637.53;;;18.06;61.92
70982;BME280;58640;51.320;9.456;2023-05-07T08:43:02;99640.00;;;18.14;60.07
70982;BME280;58640;51.320;9.456;2023-05-07T08:45:30;99646.41;;;17.95;59.61
70982;BME280;58640;51.320;9.456;2023-05-07T08:47:58;99647.00;;;18.28;59.36
70982;BME280;58640;51.320;9.456;2023-05-07T08:50:25;99656.28;;;18.51;58.51
70982;BME280;58640;51.320;9.456;2023-05-07T08:52:51;99656.56;;;18.37;58.73
70982;BME280;58640;51.320;9.456;2023-05-07T08:55:16;99661.53;;;18.53;59.46
70982;BME280;58640;51.320;9.456;2023-05-07T08:57:42;99663.97;;;18.30;59.19
70982;BME280;58640;51.320;9.456;2023-05-07T09:00:08;99665.00;;;17.98;59.87
70982;BME280;58640;51.320;9.456;2023-05-07T09:02:35;99670.69;;;17.90;60.90
70982;BME280;58640;51.320;9.456;2023-05-07T09:05:01;99667.47;;;17.62;61.77
70982;BME280;58640;51.320;9.456;2023-05-07T09:07:27;99662.06;;;17.55;63.22
70982;BME280;58640;51.320;9.456;2023-05-07T09:09:52;99659.16;;;17.43;63.47
70982;BME280;58640;51.320;9.456;2023-05-07T09:12:21;99656.88;;;17.27;63.24
70982;BME280;58640;51.320;9.456;2023-05-07T09:14:46;99662.34;;;17.21;62.85
70982;BME280;58640;51.320;9.456;2023-05-07T09:17:12;99656.72;;;17.03;64.65
70982;BME280;58640;51.320;9.456;2023-05-07T09:19:37;99650.06;;;16.66;65.37
70982;BME280;58640;51.320;9.456;2023-05-07T09:22:04;99653.28;;;17.40;64.14
70982;BME280;58640;51.320;9.456;2023-05-07T09:24:30;99653.06;;;17.41;63.97
70982;BME280;58640;51.320;9.456;2023-05-07T09:27:00;99653.44;;;17.65;61.62
70982;BME280;58640;51.320;9.456;2023-05-07T09:29:26;99649.56;;;17.28;62.58
70982;BME280;58640;51.320;9.456;2023-05-07T09:31:54;99649.19;;;17.05;63.99
70982;BME280;58640;51.320;9.456;2023-05-07T09:34:19;99646.66;;;17.29;63.38
70982;BME280;58640;51.320;9.456;2023-05-07T09:36:45;99655.50;;;16.73;64.93
70982;BME280;58640;51.320;9.456;2023-05-07T09:39:10;99655.72;;;16.91;64.34
70982;BME280;58640;51.320;9.456;2023-05-07T09:41:45;99658.44;;;16.91;64.38
70982;BME280;58640;51.320;9.456;2023-05-07T09:44:13;99662.00;;;16.85;63.84
70982;BME280;58640;51.320;9.456;2023-05-07T09:46:42;99657.94;;;16.09;67.53
70982;BME280;58640;51.320;9.456;2023-05-07T09:49:16;99662.34;;;16.36;66.88
70982;BME280;58640;51.320;9.456;2023-05-07T09:51:49;99652.53;;;16.22;66.98
70982;BME280;58640;51.320;9.456;2023-05-07T09:54:17;99662.34;;;16.30;65.78
70982;BME280;58640;51.320;9.456;2023-05-07T09:56:43;99651.97;;;16.59;66.14
70982;BME280;58640;51.320;9.456;2023-05-07T09:59:14;99653.41;;;16.81;64.75
70982;BME280;58640;51.320;9.456;2023-05-07T10:01:41;99648.63;;;16.83;64.51
70982;BME280;58640;51.320;9.456;2023-05-07T10:04:07;99656.13;;;16.75;65.04
70982;BME280;58640;51.320;9.456;2023-05-07T10:06:36;99656.72;;;16.90;64.71
70982;BME280;58640;51.320;9.456;2023-05-07T10:09:02;99654.22;;;17.01;63.25
70982;BME280;58640;51.320;9.456;2023-05-07T10:11:28;99652.19;;;16.51;65.74
70982;BME280;58640;51.320;9.456;2023-05-07T10:13:54;99652.09;;;17.16;63.86
70982;BME280;58640;51.320;9.456;2023-05-07T10:16:21;99651.66;;;17.90;61.54
70982;BME280;58640;51.320;9.456;2023-05-07T10:18:46;99665.56;;;18.06;60.03
70982;BME280;58640;51.320;9.456;2023-05-07T10:21:20;99651.19;;;18.30;58.56
70982;BME280;58640;51.320;9.456;2023-05-07T10:23:49;99662.25;;;18.04;60.16
70982;BME280;58640;51.320;9.456;2023-05-07T10:26:17;99662.78;;;17.82;60.32
70982;BME280;58640;51.320;9.456;2023-05-07T10:28:47;99666.66;;;17.61;61.30
70982;BME280;58640;51.320;9.456;2023-05-07T10:34:11;99653.78;;;17.81;60.66
70982;BME280;58640;51.320;9.456;2023-05-07T10:36:38;99651.34;;;17.67;61.08
70982;BME280;58640;51.320;9.456;2023-05-07T10:39:05;99644.09;;;17.47;61.49
70982;BME280;58640;51.320;9.456;2023-05-07T10:41:31;99649.41;;;17.80;60.90
70982;BME280;58640;51.320;9.456;2023-05-07T10:43:56;99647.78;;;18.04;59.59
70982;BME280;58640;51.320;9.456;2023-05-07T10:46:22;99655.50;;;18.13;58.96
70982;BME280;58640;51.320;9.456;2023-05-07T10:51:25;99656.19;;;18.33;57.90
70982;BME280;58640;51.320;9.456;2023-05-07T10:56:41;99647.00;;;18.59;57.96
70982;BME280;58640;51.320;9.456;2023-05-07T10:59:30;99648.22;;;18.32;57.96
70982;BME280;58640;51.320;9.456;2023-05-07T11:02:03;99654.38;;;18.58;57.09
70982;BME280;58640;51.320;9.456;2023-05-07T11:04:30;99656.03;;;18.59;57.56
70982;BME280;58640;51.320;9.456;2023-05-07T11:15:49;99657.63;;;18.67;56.25
70982;BME280;58640;51.320;9.456;2023-05-07T11:18:17;99658.19;;;19.00;55.75
70982;BME280;58640;51.320;9.456;2023-05-07T11:20:55;99656.41;;;18.63;55.62
70982;BME280;58640;51.320;9.456;2023-05-07T11:26:08;99652.19;;;18.42;57.02
70982;BME280;58640;51.320;9.456;2023-05-07T11:28:39;99645.53;;;18.87;56.75
70982;BME280;58640;51.320;9.456;2023-05-07T11:31:05;99656.78;;;18.73;56.29
70982;BME280;58640;51.320;9.456;2023-05-07T11:33:31;99650.72;;;18.40;56.54
70982;BME280;58640;51.320;9.456;2023-05-07T11:35:57;99654.19;;;18.53;56.23
70982;BME280;58640;51.320;9.456;2023-05-07T11:38:22;99649.09;;;18.01;57.43
70982;BME280;58640;51.320;9.456;2023-05-07T11:40:59;99654.00;;;18.17;58.27
70982;BME280;58640;51.320;9.456;2023-05-07T11:43:29;99657.09;;;18.58;56.87
70982;BME280;58640;51.320;9.456;2023-05-07T11:45:54;99659.66;;;18.53;56.32
70982;BME280;58640;51.320;9.456;2023-05-07T11:48:21;99648.50;;;17.93;58.14
70982;BME280;58640;51.320;9.456;2023-05-07T11:50:59;99651.41;;;18.29;57.37
70982;BME280;58640;51.320;9.456;2023-05-07T11:53:25;99654.03;;;17.73;58.12
70982;BME280;58640;51.320;9.456;2023-05-07T11:55:57;99656.09;;;17.78;59.39
70982;BME280;58640;51.320;9.456;2023-05-07T11:58:24;99658.91;;;17.58;59.71
70982;BME280;58640;51.320;9.456;2023-05-07T12:00:51;99644.69;;;17.43;60.15
70982;BME280;58640;51.320;9.456;2023-05-07T12:03:16;99650.78;;;17.52;59.75
70982;BME280;58640;51.320;9.456;2023-05-07T12:05:44;99641.69;;;17.07;61.11
70982;BME280;58640;51.320;9.456;2023-05-07T12:08:17;99651.72;;;16.93;61.08
70982;BME280;58640;51.320;9.456;2023-05-07T12:10:43;99642.53;;;16.88;61.87
70982;BME280;58640;51.320;9.456;2023-05-07T12:13:23;99639.63;;;16.57;63.36
70982;BME280;58640;51.320;9.456;2023-05-07T12:15:52;99646.75;;;16.58;63.15
70982;BME280;58640;51.320;9.456;2023-05-07T12:18:18;99650.91;;;16.67;63.00
70982;BME280;58640;51.320;9.456;2023-05-07T12:20:45;99641.31;;;16.58;63.60
70982;BME280;58640;51.320;9.456;2023-05-07T12:23:11;99641.72;;;16.61;64.47
70982;BME280;58640;51.320;9.456;2023-05-07T12:25:38;99659.69;;;16.56;63.66
70982;BME280;58640;51.320;9.456;2023-05-07T12:28:04;99652.28;;;16.10;64.71
70982;BME280;58640;51.320;9.456;2023-05-07T12:30:37;99647.94;;;16.16;65.63
70982;BME280;58640;51.320;9.456;2023-05-07T12:33:02;99656.09;;;16.42;65.01
70982;BME280;58640;51.320;9.456;2023-05-07T12:35:28;99653.13;;;16.11;65.30
70982;BME280;58640;51.320;9.456;2023-05-07T12:37:55;99658.97;;;16.01;65.57
70982;BME280;58640;51.320;9.456;2023-05-07T12:40:21;99643.72;;;16.13;65.61
70982;BME280;58640;51.320;9.456;2023-05-07T12:42:46;99656.47;;;16.20;65.92
70982;BME280;58640;51.320;9.456;2023-05-07T12:45:12;99655.47;;;16.27;65.81
70982;BME280;58640;51.320;9.456;2023-05-07T12:47:38;99644.38;;;16.16;65.78
70982;BME280;58640;51.320;9.456;2023-05-07T12:50:07;99641.19;;;15.99;66.22
70982;BME280;58640;51.320;9.456;2023-05-07T12:52:33;99652.69;;;16.07;66.07
70982;BME280;58640;51.320;9.456;2023-05-07T12:55:05;99645.41;;;16.01;66.82
70982;BME280;58640;51.320;9.456;2023-05-07T12:57:37;99646.78;;;15.84;66.32
70982;BME280;58640;51.320;9.456;2023-05-07T13:00:03;99656.16;;;15.75;66.95
70982;BME280;58640;51.320;9.456;2023-05-07T13:02:32;99657.84;;;15.83;66.85
70982;BME280;58640;51.320;9.456;2023-05-07T13:04:58;99650.78;;;15.88;66.61
70982;BME280;58640;51.320;9.456;2023-05-07T13:07:25;99654.97;;;15.97;66.78
70982;BME280;58640;51.320;9.456;2023-05-07T13:09:50;99646.88;;;16.10;66.53
70982;BME280;58640;51.320;9.456;2023-05-07T13:12:15;99643.72;;;16.07;65.96
70982;BME280;58640;51.320;9.456;2023-05-07T13:14:41;99648.72;;;16.10;66.23